Oujda, Morocco
Current Conditions -  °F | °C
As of 12:00 PM on Saturday 25 Oct 2014 (Local Time) from GMFO Reporting Station
Clear Clear  
Wind Chill: 77°   Ceiling: Unl
Heat Index: 78°   Visibility: 6mi
Dew Point: 43°   Wind: 5mph
Humidity: 29%   Direction: 50°NE
Pressure: 30.09"   Gusts: NA
Location:  34.69°N, 1.91°W
Report Text: GMFO 251100Z 05004KT 360V130 CAVOK 25/06 Q1019 NOSIG
Loading
Personal Weather Stations






























Interactive Weather Map
Tropical Storm Tracking
New forecast layout! Learn more

10-Day Weather Forecast

Advertisements
Track Severe Weather on mobile